sensor_id;sensor_type;location;lat;lon;timestamp;temperature;humidity
15259;DHT22;34462;51.368;12.364;2023-03-15T00:00:05;3.50;99.90
15259;DHT22;34462;51.368;12.364;2023-03-15T00:02:35;3.40;99.90
15259;DHT22;34462;51.368;12.364;2023-03-15T00:05:04;3.40;99.90
15259;DHT22;34462;51.368;12.364;2023-03-15T00:07:33;3.30;99.90
15259;DHT22;34462;51.368;12.364;2023-03-15T00:10:01;3.20;99.90
15259;DHT22;34462;51.368;12.364;2023-03-15T00:12:31;3.20;99.90
15259;DHT22;34462;51.368;12.364;2023-03-15T00:15:00;3.20;99.90
15259;DHT22;34462;51.368;12.364;2023-03-15T00:17:28;3.20;99.90
15259;DHT22;34462;51.368;12.364;2023-03-15T00:20:00;3.20;99.90
15259;DHT22;34462;51.368;12.364;2023-03-15T00:22:29;3.20;99.90
15259;DHT22;34462;51.368;12.364;2023-03-15T00:24:58;3.20;99.90
15259;DHT22;34462;51.368;12.364;2023-03-15T00:27:26;3.20;99.90
15259;DHT22;34462;51.368;12.364;2023-03-15T00:29:55;3.30;99.90
15259;DHT22;34462;51.368;12.364;2023-03-15T00:32:24;3.30;99.90
15259;DHT22;34462;51.368;12.364;2023-03-15T00:34:52;3.30;99.90
15259;DHT22;34462;51.368;12.364;2023-03-15T00:37:20;3.30;99.90
15259;DHT22;34462;51.368;12.364;2023-03-15T00:39:51;3.30;99.90
15259;DHT22;34462;51.368;12.364;2023-03-15T00:42:21;3.40;99.90
15259;DHT22;34462;51.368;12.364;2023-03-15T00:44:54;3.40;99.90
15259;DHT22;34462;51.368;12.364;2023-03-15T00:47:22;3.40;99.90
15259;DHT22;34462;51.368;12.364;2023-03-15T00:49:51;3.40;99.90
15259;DHT22;34462;51.368;12.364;2023-03-15T00:52:19;3.50;99.90
15259;DHT22;34462;51.368;12.364;2023-03-15T00:54:50;3.30;99.90
15259;DHT22;34462;51.368;12.364;2023-03-15T00:57:19;3.30;99.90
15259;DHT22;34462;51.368;12.364;2023-03-15T00:59:47;3.30;99.90
15259;DHT22;34462;51.368;12.364;2023-03-15T01:02:20;3.20;99.90
15259;DHT22;34462;51.368;12.364;2023-03-15T01:04:48;3.20;99.90
15259;DHT22;34462;51.368;12.364;2023-03-15T01:07:16;3.20;99.90
15259;DHT22;34462;51.368;12.364;2023-03-15T01:09:44;3.20;99.90
15259;DHT22;34462;51.368;12.364;2023-03-15T01:12:14;3.10;99.90
15259;DHT22;34462;51.368;12.364;2023-03-15T01:14:42;3.10;99.90
15259;DHT22;34462;51.368;12.364;2023-03-15T01:17:10;3.00;99.90
15259;DHT22;34462;51.368;12.364;2023-03-15T01:19:40;3.10;99.90
15259;DHT22;34462;51.368;12.364;2023-03-15T01:22:08;3.10;99.90
15259;DHT22;34462;51.368;12.364;2023-03-15T01:24:36;3.10;99.90
15259;DHT22;34462;51.368;12.364;2023-03-15T01:27:04;3.00;99.90
15259;DHT22;34462;51.368;12.364;2023-03-15T01:29:33;3.00;99.90
15259;DHT22;34462;51.368;12.364;2023-03-15T01:32:01;3.00;99.90
15259;DHT22;34462;51.368;12.364;2023-03-15T01:34:29;3.00;99.90
15259;DHT22;34462;51.368;12.364;2023-03-15T01:36:59;3.00;99.90
15259;DHT22;34462;51.368;12.364;2023-03-15T01:39:28;3.00;99.90
15259;DHT22;34462;51.368;12.364;2023-03-15T01:41:57;2.90;99.90
15259;DHT22;34462;51.368;12.364;2023-03-15T01:44:48;2.90;99.90
15259;DHT22;34462;51.368;12.364;2023-03-15T01:47:18;2.80;99.90
15259;DHT22;34462;51.368;12.364;2023-03-15T01:49:52;2.80;99.90
15259;DHT22;34462;51.368;12.364;2023-03-15T01:52:32;2.80;99.90
15259;DHT22;34462;51.368;12.364;2023-03-15T01:55:05;2.70;99.90
15259;DHT22;34462;51.368;12.364;2023-03-15T01:57:39;2.70;99.90
15259;DHT22;34462;51.368;12.364;2023-03-15T02:00:13;2.70;99.90
15259;DHT22;34462;51.368;12.364;2023-03-15T02:02:44;2.60;99.90
15259;DHT22;34462;51.368;12.364;2023-03-15T02:05:19;2.60;99.90
15259;DHT22;34462;51.368;12.364;2023-03-15T02:07:52;2.50;99.90
15259;DHT22;34462;51.368;12.364;2023-03-15T02:10:25;2.40;99.90
15259;DHT22;34462;51.368;12.364;2023-03-15T02:12:57;2.50;99.90
15259;DHT22;34462;51.368;12.364;2023-03-15T02:15:26;2.40;99.90
15259;DHT22;34462;51.368;12.364;2023-03-15T02:17:54;2.50;99.90
15259;DHT22;34462;51.368;12.364;2023-03-15T02:20:30;2.40;99.90
15259;DHT22;34462;51.368;12.364;2023-03-15T02:23:07;2.30;99.90
15259;DHT22;34462;51.368;12.364;2023-03-15T02:25:42;2.40;99.90
15259;DHT22;34462;51.368;12.364;2023-03-15T02:28:20;2.40;99.90
15259;DHT22;34462;51.368;12.364;2023-03-15T02:30:49;2.30;99.90
15259;DHT22;34462;51.368;12.364;2023-03-15T02:33:21;2.30;99.90
15259;DHT22;34462;51.368;12.364;2023-03-15T02:35:52;2.30;99.90
15259;DHT22;34462;51.368;12.364;2023-03-15T02:38:22;2.20;99.90
15259;DHT22;34462;51.368;12.364;2023-03-15T02:40:52;2.20;99.90
15259;DHT22;34462;51.368;12.364;2023-03-15T02:43:24;2.20;99.90
15259;DHT22;34462;51.368;12.364;2023-03-15T02:45:56;2.10;99.90
15259;DHT22;34462;51.368;12.364;2023-03-15T02:48:26;2.10;99.90
15259;DHT22;34462;51.368;12.364;2023-03-15T02:50:55;2.10;99.90
15259;DHT22;34462;51.368;12.364;2023-03-15T02:53:23;2.10;99.90
15259;DHT22;34462;51.368;12.364;2023-03-15T02:55:51;2.00;99.90
15259;DHT22;34462;51.368;12.364;2023-03-15T02:58:21;2.00;99.90
15259;DHT22;34462;51.368;12.364;2023-03-15T03:00:50;2.00;99.90
15259;DHT22;34462;51.368;12.364;2023-03-15T03:03:19;1.90;99.90
15259;DHT22;34462;51.368;12.364;2023-03-15T03:05:47;2.20;99.90
15259;DHT22;34462;51.368;12.364;2023-03-15T03:08:16;1.90;99.90
15259;DHT22;34462;51.368;12.364;2023-03-15T03:10:44;1.80;99.90
15259;DHT22;34462;51.368;12.364;2023-03-15T03:13:12;1.80;99.90
15259;DHT22;34462;51.368;12.364;2023-03-15T03:15:41;1.80;99.90
15259;DHT22;34462;51.368;12.364;2023-03-15T03:18:11;1.80;99.90
15259;DHT22;34462;51.368;12.364;2023-03-15T03:20:39;1.80;99.90
15259;DHT22;34462;51.368;12.364;2023-03-15T03:23:07;1.80;99.90
15259;DHT22;34462;51.368;12.364;2023-03-15T03:25:35;1.80;99.90
15259;DHT22;34462;51.368;12.364;2023-03-15T03:28:03;1.80;99.90
15259;DHT22;34462;51.368;12.364;2023-03-15T03:30:34;1.70;99.90
15259;DHT22;34462;51.368;12.364;2023-03-15T03:33:03;1.70;99.90
15259;DHT22;34462;51.368;12.364;2023-03-15T03:35:31;1.80;99.90
15259;DHT22;34462;51.368;12.364;2023-03-15T03:37:59;1.70;99.90
15259;DHT22;34462;51.368;12.364;2023-03-15T03:40:28;1.70;99.90
15259;DHT22;34462;51.368;12.364;2023-03-15T03:42:56;1.70;99.90
15259;DHT22;34462;51.368;12.364;2023-03-15T03:45:24;1.70;99.90
15259;DHT22;34462;51.368;12.364;2023-03-15T03:47:52;1.70;99.90
15259;DHT22;34462;51.368;12.364;2023-03-15T03:50:22;1.60;99.90
15259;DHT22;34462;51.368;12.364;2023-03-15T03:52:50;1.60;99.90
15259;DHT22;34462;51.368;12.364;2023-03-15T03:55:19;1.60;99.90
15259;DHT22;34462;51.368;12.364;2023-03-15T03:57:51;1.60;99.90
15259;DHT22;34462;51.368;12.364;2023-03-15T04:00:19;1.50;99.90
15259;DHT22;34462;51.368;12.364;2023-03-15T04:02:48;1.60;99.90
15259;DHT22;34462;51.368;12.364;2023-03-15T04:05:20;1.50;99.90
15259;DHT22;34462;51.368;12.364;2023-03-15T04:07:49;1.60;99.90
15259;DHT22;34462;51.368;12.364;2023-03-15T04:10:18;1.60;99.90
15259;DHT22;34462;51.368;12.364;2023-03-15T04:12:53;1.50;99.90
15259;DHT22;34462;51.368;12.364;2023-03-15T04:15:22;1.60;99.90
15259;DHT22;34462;51.368;12.364;2023-03-15T04:17:51;1.60;99.90
15259;DHT22;34462;51.368;12.364;2023-03-15T04:20:23;1.50;99.90
15259;DHT22;34462;51.368;12.364;2023-03-15T04:22:53;1.50;99.90
15259;DHT22;34462;51.368;12.364;2023-03-15T04:25:21;1.50;99.90
15259;DHT22;34462;51.368;12.364;2023-03-15T04:27:52;1.50;99.90
15259;DHT22;34462;51.368;12.364;2023-03-15T04:30:25;1.60;99.90
15259;DHT22;34462;51.368;12.364;2023-03-15T04:32:54;1.50;99.90
15259;DHT22;34462;51.368;12.364;2023-03-15T04:35:27;1.50;99.90
15259;DHT22;34462;51.368;12.364;2023-03-15T04:37:56;1.50;99.90
15259;DHT22;34462;51.368;12.364;2023-03-15T04:40:25;1.40;99.90
15259;DHT22;34462;51.368;12.364;2023-03-15T04:42:54;1.40;99.90
15259;DHT22;34462;51.368;12.364;2023-03-15T04:45:23;1.30;99.90
15259;DHT22;34462;51.368;12.364;2023-03-15T04:47:53;1.40;99.90
15259;DHT22;34462;51.368;12.364;2023-03-15T04:50:22;1.40;99.90
15259;DHT22;34462;51.368;12.364;2023-03-15T04:52:52;1.30;99.90
15259;DHT22;34462;51.368;12.364;2023-03-15T04:55:21;1.30;99.90
15259;DHT22;34462;51.368;12.364;2023-03-15T04:57:49;1.40;99.90
15259;DHT22;34462;51.368;12.364;2023-03-15T05:00:18;1.30;99.90
15259;DHT22;34462;51.368;12.364;2023-03-15T05:02:47;1.40;99.90
15259;DHT22;34462;51.368;12.364;2023-03-15T05:05:21;1.40;99.90
15259;DHT22;34462;51.368;12.364;2023-03-15T05:07:50;1.50;99.90
15259;DHT22;34462;51.368;12.364;2023-03-15T05:10:20;1.50;99.90
15259;DHT22;34462;51.368;12.364;2023-03-15T05:12:49;1.60;99.90
15259;DHT22;34462;51.368;12.364;2023-03-15T05:15:17;1.60;99.90
15259;DHT22;34462;51.368;12.364;2023-03-15T05:17:45;1.70;99.90
15259;DHT22;34462;51.368;12.364;2023-03-15T05:20:14;1.80;99.90
15259;DHT22;34462;51.368;12.364;2023-03-15T05:22:43;1.90;99.90
15259;DHT22;34462;51.368;12.364;2023-03-15T05:25:12;2.00;99.90
15259;DHT22;34462;51.368;12.364;2023-03-15T05:27:41;2.10;99.90
15259;DHT22;34462;51.368;12.364;2023-03-15T05:30:12;2.10;99.90
15259;DHT22;34462;51.368;12.364;2023-03-15T05:32:42;2.20;99.90
15259;DHT22;34462;51.368;12.364;2023-03-15T05:35:11;2.20;99.90
15259;DHT22;34462;51.368;12.364;2023-03-15T05:37:40;2.30;99.90
15259;DHT22;34462;51.368;12.364;2023-03-15T05:40:09;2.40;99.90
15259;DHT22;34462;51.368;12.364;2023-03-15T05:42:39;2.50;99.90
15259;DHT22;34462;51.368;12.364;2023-03-15T05:45:08;2.50;99.90
15259;DHT22;34462;51.368;12.364;2023-03-15T05:47:37;2.50;99.90
15259;DHT22;34462;51.368;12.364;2023-03-15T05:50:06;2.60;99.90
15259;DHT22;34462;51.368;12.364;2023-03-15T05:52:35;2.60;99.90
15259;DHT22;34462;51.368;12.364;2023-03-15T05:55:03;2.60;99.90
15259;DHT22;34462;51.368;12.364;2023-03-15T05:57:32;2.70;99.90
15259;DHT22;34462;51.368;12.364;2023-03-15T06:00:03;2.90;99.90
15259;DHT22;34462;51.368;12.364;2023-03-15T06:02:34;2.90;99.90
15259;DHT22;34462;51.368;12.364;2023-03-15T06:05:03;3.00;99.90
15259;DHT22;34462;51.368;12.364;2023-03-15T06:07:31;3.20;99.90
15259;DHT22;34462;51.368;12.364;2023-03-15T06:10:00;3.30;99.90
15259;DHT22;34462;51.368;12.364;2023-03-15T06:12:28;3.40;99.90
15259;DHT22;34462;51.368;12.364;2023-03-15T06:14:56;3.40;99.90
15259;DHT22;34462;51.368;12.364;2023-03-15T06:17:26;3.40;99.90
15259;DHT22;34462;51.368;12.364;2023-03-15T06:19:54;3.50;99.90
15259;DHT22;34462;51.368;12.364;2023-03-15T06:22:22;3.40;99.90
15259;DHT22;34462;51.368;12.364;2023-03-15T06:24:50;3.40;99.90
15259;DHT22;34462;51.368;12.364;2023-03-15T06:27:18;3.40;99.90
15259;DHT22;34462;51.368;12.364;2023-03-15T06:29:48;3.40;99.90
15259;DHT22;34462;51.368;12.364;2023-03-15T06:32:17;3.30;99.90
15259;DHT22;34462;51.368;12.364;2023-03-15T06:34:46;3.40;99.90
15259;DHT22;34462;51.368;12.364;2023-03-15T06:37:14;3.30;99.90
15259;DHT22;34462;51.368;12.364;2023-03-15T06:40:00;3.30;99.90
15259;DHT22;34462;51.368;12.364;2023-03-15T06:42:29;3.30;99.90
15259;DHT22;34462;51.368;12.364;2023-03-15T06:44:57;3.20;99.90
15259;DHT22;34462;51.368;12.364;2023-03-15T06:47:26;3.70;99.90
15259;DHT22;34462;51.368;12.364;2023-03-15T06:49:56;3.30;99.90
15259;DHT22;34462;51.368;12.364;2023-03-15T06:52:24;3.30;99.90
15259;DHT22;34462;51.368;12.364;2023-03-15T06:54:53;3.40;99.90
15259;DHT22;34462;51.368;12.364;2023-03-15T06:57:21;3.40;99.90
15259;DHT22;34462;51.368;12.364;2023-03-15T06:59:50;3.50;99.90
15259;DHT22;34462;51.368;12.364;2023-03-15T07:02:19;3.50;99.90
15259;DHT22;34462;51.368;12.364;2023-03-15T07:04:48;3.50;99.90
15259;DHT22;34462;51.368;12.364;2023-03-15T07:07:17;3.50;99.90
15259;DHT22;34462;51.368;12.364;2023-03-15T07:09:46;3.50;99.90
15259;DHT22;34462;51.368;12.364;2023-03-15T07:12:14;3.40;99.90
15259;DHT22;34462;51.368;12.364;2023-03-15T07:14:42;3.30;99.90
15259;DHT22;34462;51.368;12.364;2023-03-15T07:17:12;3.20;99.90
15259;DHT22;34462;51.368;12.364;2023-03-15T07:19:40;3.20;99.90
15259;DHT22;34462;51.368;12.364;2023-03-15T07:22:23;3.10;99.90
15259;DHT22;34462;51.368;12.364;2023-03-15T07:24:52;3.00;99.90
15259;DHT22;34462;51.368;12.364;2023-03-15T07:27:20;2.90;99.90
15259;DHT22;34462;51.368;12.364;2023-03-15T07:29:49;2.90;99.90
15259;DHT22;34462;51.368;12.364;2023-03-15T07:32:18;2.90;99.90
15259;DHT22;34462;51.368;12.364;2023-03-15T07:34:46;2.80;99.90
15259;DHT22;34462;51.368;12.364;2023-03-15T07:37:14;2.80;99.90
15259;DHT22;34462;51.368;12.364;2023-03-15T07:39:44;2.80;99.90
15259;DHT22;34462;51.368;12.364;2023-03-15T07:42:12;2.90;99.90
15259;DHT22;34462;51.368;12.364;2023-03-15T07:44:41;2.80;99.90
15259;DHT22;34462;51.368;12.364;2023-03-15T07:47:09;2.80;99.90
15259;DHT22;34462;51.368;12.364;2023-03-15T07:49:37;2.70;99.90
15259;DHT22;34462;51.368;12.364;2023-03-15T07:52:06;2.70;99.90
15259;DHT22;34462;51.368;12.364;2023-03-15T07:54:35;2.80;99.90
15259;DHT22;34462;51.368;12.364;2023-03-15T07:57:05;2.80;99.90
15259;DHT22;34462;51.368;12.364;2023-03-15T07:59:33;2.80;99.90
15259;DHT22;34462;51.368;12.364;2023-03-15T08:02:02;2.80;99.90
15259;DHT22;34462;51.368;12.364;2023-03-15T08:04:30;2.80;99.90
15259;DHT22;34462;51.368;12.364;2023-03-15T08:07:01;2.90;99.90
15259;DHT22;34462;51.368;12.364;2023-03-15T08:09:29;3.00;99.90
15259;DHT22;34462;51.368;12.364;2023-03-15T08:12:00;3.00;99.90
15259;DHT22;34462;51.368;12.364;2023-03-15T08:14:30;3.10;99.90
15259;DHT22;34462;51.368;12.364;2023-03-15T08:16:59;3.10;99.90
15259;DHT22;34462;51.368;12.364;2023-03-15T08:19:27;3.30;99.90
15259;DHT22;34462;51.368;12.364;2023-03-15T08:21:55;3.40;99.90
15259;DHT22;34462;51.368;12.364;2023-03-15T08:24:23;3.60;99.90
15259;DHT22;34462;51.368;12.364;2023-03-15T08:26:52;3.90;99.90
15259;DHT22;34462;51.368;12.364;2023-03-15T08:29:20;4.00;99.90
15259;DHT22;34462;51.368;12.364;2023-03-15T08:31:50;4.20;99.90
15259;DHT22;34462;51.368;12.364;2023-03-15T08:34:18;4.40;99.90
15259;DHT22;34462;51.368;12.364;2023-03-15T08:36:47;4.70;99.90
15259;DHT22;34462;51.368;12.364;2023-03-15T08:39:15;4.90;99.90
15259;DHT22;34462;51.368;12.364;2023-03-15T08:41:43;5.00;99.90
15259;DHT22;34462;51.368;12.364;2023-03-15T08:44:13;5.10;99.90
15259;DHT22;34462;51.368;12.364;2023-03-15T08:46:41;5.10;99.90
15259;DHT22;34462;51.368;12.364;2023-03-15T08:49:10;5.00;99.90
15259;DHT22;34462;51.368;12.364;2023-03-15T08:51:38;4.80;99.90
15259;DHT22;34462;51.368;12.364;2023-03-15T08:54:07;4.60;99.90
15259;DHT22;34462;51.368;12.364;2023-03-15T08:56:35;4.30;99.90
15259;DHT22;34462;51.368;12.364;2023-03-15T08:59:03;4.30;99.90
15259;DHT22;34462;51.368;12.364;2023-03-15T09:01:31;4.30;99.90
15259;DHT22;34462;51.368;12.364;2023-03-15T09:04:00;4.30;99.90
15259;DHT22;34462;51.368;12.364;2023-03-15T09:06:31;4.30;99.90
15259;DHT22;34462;51.368;12.364;2023-03-15T09:08:59;4.50;99.90
15259;DHT22;34462;51.368;12.364;2023-03-15T09:11:27;4.60;99.90
15259;DHT22;34462;51.368;12.364;2023-03-15T09:13:55;4.70;99.90
15259;DHT22;34462;51.368;12.364;2023-03-15T09:16:23;5.00;99.90
15259;DHT22;34462;51.368;12.364;2023-03-15T09:18:52;5.20;99.90
15259;DHT22;34462;51.368;12.364;2023-03-15T09:21:20;5.50;99.90
15259;DHT22;34462;51.368;12.364;2023-03-15T09:23:51;5.60;99.90
15259;DHT22;34462;51.368;12.364;2023-03-15T09:26:19;5.80;99.90
15259;DHT22;34462;51.368;12.364;2023-03-15T09:28:48;5.80;99.90
15259;DHT22;34462;51.368;12.364;2023-03-15T09:31:16;6.10;99.90
15259;DHT22;34462;51.368;12.364;2023-03-15T09:33:44;6.20;99.90
15259;DHT22;34462;51.368;12.364;2023-03-15T09:36:13;6.30;99.90
15259;DHT22;34462;51.368;12.364;2023-03-15T09:38:42;6.40;99.90
15259;DHT22;34462;51.368;12.364;2023-03-15T09:41:16;6.40;99.90
15259;DHT22;34462;51.368;12.364;2023-03-15T09:43:59;6.60;99.90
15259;DHT22;34462;51.368;12.364;2023-03-15T09:46:42;6.60;99.90
15259;DHT22;34462;51.368;12.364;2023-03-15T09:49:30;6.90;99.90
15259;DHT22;34462;51.368;12.364;2023-03-15T09:52:12;7.00;99.90
15259;DHT22;34462;51.368;12.364;2023-03-15T09:54:58;6.80;99.90
15259;DHT22;34462;51.368;12.364;2023-03-15T09:57:36;6.70;99.90
15259;DHT22;34462;51.368;12.364;2023-03-15T10:00:13;6.70;99.90
15259;DHT22;34462;51.368;12.364;2023-03-15T10:02:53;6.90;99.90
15259;DHT22;34462;51.368;12.364;2023-03-15T10:05:31;6.90;99.90
15259;DHT22;34462;51.368;12.364;2023-03-15T10:08:09;7.00;99.90
15259;DHT22;34462;51.368;12.364;2023-03-15T10:10:46;7.10;99.90
15259;DHT22;34462;51.368;12.364;2023-03-15T10:13:31;7.40;99.90
15259;DHT22;34462;51.368;12.364;2023-03-15T10:16:27;7.40;99.90
15259;DHT22;34462;51.368;12.364;2023-03-15T10:19:21;7.20;99.90
15259;DHT22;34462;51.368;12.364;2023-03-15T10:22:00;7.30;99.90
15259;DHT22;34462;51.368;12.364;2023-03-15T10:24:35;7.60;99.90
15259;DHT22;34462;51.368;12.364;2023-03-15T10:27:14;7.50;99.90
15259;DHT22;34462;51.368;12.364;2023-03-15T10:29:48;7.40;99.90
15259;DHT22;34462;51.368;12.364;2023-03-15T10:32:23;7.40;99.90
15259;DHT22;34462;51.368;12.364;2023-03-15T10:34:55;7.50;99.90
15259;DHT22;34462;51.368;12.364;2023-03-15T10:37:25;7.70;99.90
15259;DHT22;34462;51.368;12.364;2023-03-15T10:39:54;7.80;99.90
15259;DHT22;34462;51.368;12.364;2023-03-15T10:42:27;7.90;99.90
15259;DHT22;34462;51.368;12.364;2023-03-15T10:45:12;8.20;99.90
15259;DHT22;34462;51.368;12.364;2023-03-15T10:47:47;8.30;99.90
15259;DHT22;34462;51.368;12.364;2023-03-15T10:50:27;8.20;99.90
15259;DHT22;34462;51.368;12.364;2023-03-15T10:52:57;7.90;99.90
15259;DHT22;34462;51.368;12.364;2023-03-15T10:55:30;7.60;99.90
15259;DHT22;34462;51.368;12.364;2023-03-15T10:58:17;7.70;99.90
15259;DHT22;34462;51.368;12.364;2023-03-15T11:00:58;7.50;99.90
15259;DHT22;34462;51.368;12.364;2023-03-15T11:03:29;7.50;99.90
15259;DHT22;34462;51.368;12.364;2023-03-15T11:05:58;7.50;99.90
15259;DHT22;34462;51.368;12.364;2023-03-15T11:08:36;7.40;99.90
15259;DHT22;34462;51.368;12.364;2023-03-15T11:11:06;7.40;99.90
15259;DHT22;34462;51.368;12.364;2023-03-15T11:13:37;7.10;99.90
15259;DHT22;34462;51.368;12.364;2023-03-15T11:16:18;6.90;99.90
15259;DHT22;34462;51.368;12.364;2023-03-15T11:18:51;6.80;99.90
15259;DHT22;34462;51.368;12.364;2023-03-15T11:21:27;6.80;99.90
15259;DHT22;34462;51.368;12.364;2023-03-15T11:24:00;6.70;99.90
15259;DHT22;34462;51.368;12.364;2023-03-15T11:26:34;6.70;99.90
15259;DHT22;34462;51.368;12.364;2023-03-15T11:29:06;6.70;99.90
15259;DHT22;34462;51.368;12.364;2023-03-15T11:31:43;6.70;99.90
15259;DHT22;34462;51.368;12.364;2023-03-15T11:34:15;6.70;99.90
15259;DHT22;34462;51.368;12.364;2023-03-15T11:36:55;6.60;99.90
15259;DHT22;34462;51.368;12.364;2023-03-15T11:39:40;6.60;99.90
15259;DHT22;34462;51.368;12.364;2023-03-15T11:42:21;6.80;99.90
15259;DHT22;34462;51.368;12.364;2023-03-15T11:44:57;7.00;99.90
15259;DHT22;34462;51.368;12.364;2023-03-15T11:47:38;7.20;99.90
15259;DHT22;34462;51.368;12.364;2023-03-15T11:50:12;7.30;99.90
15259;DHT22;34462;51.368;12.364;2023-03-15T11:52:47;7.20;99.90
15259;DHT22;34462;51.368;12.364;2023-03-15T11:55:18;7.10;99.90
15259;DHT22;34462;51.368;12.364;2023-03-15T11:57:50;7.10;99.90
15259;DHT22;34462;51.368;12.364;2023-03-15T12:03:38;7.10;99.90
15259;DHT22;34462;51.368;12.364;2023-03-15T12:06:34;7.10;99.90
15259;DHT22;34462;51.368;12.364;2023-03-15T12:09:44;7.10;99.90
15259;DHT22;34462;51.368;12.364;2023-03-15T12:12:37;7.10;99.90
15259;DHT22;34462;51.368;12.364;2023-03-15T12:15:42;7.00;99.90
15259;DHT22;34462;51.368;12.364;2023-03-15T12:18:19;7.10;99.90
15259;DHT22;34462;51.368;12.364;2023-03-15T12:21:12;7.10;99.90
15259;DHT22;34462;51.368;12.364;2023-03-15T12:23:47;7.40;99.90
15259;DHT22;34462;51.368;12.364;2023-03-15T12:26:26;7.60;99.90
15259;DHT22;34462;51.368;12.364;2023-03-15T12:29:06;8.00;99.90
15259;DHT22;34462;51.368;12.364;2023-03-15T12:31:48;8.60;99.90
15259;DHT22;34462;51.368;12.364;2023-03-15T12:37:16;9.10;99.90
15259;DHT22;34462;51.368;12.364;2023-03-15T12:39:49;9.30;99.90
15259;DHT22;34462;51.368;12.364;2023-03-15T12:45:41;9.00;99.90
15259;DHT22;34462;51.368;12.364;2023-03-15T12:48:23;8.70;99.90
15259;DHT22;34462;51.368;12.364;2023-03-15T12:51:03;8.40;99.90
15259;DHT22;34462;51.368;12.364;2023-03-15T12:53:41;8.00;99.90
15259;DHT22;34462;51.368;12.364;2023-03-15T12:56:29;7.90;99.90
15259;DHT22;34462;51.368;12.364;2023-03-15T12:59:12;7.90;99.90
15259;DHT22;34462;51.368;12.364;2023-03-15T13:01:45;7.90;99.90
15259;DHT22;34462;51.368;12.364;2023-03-15T13:04:14;8.10;99.90
15259;DHT22;34462;51.368;12.364;2023-03-15T13:06:54;8.50;99.90
15259;DHT22;34462;51.368;12.364;2023-03-15T13:09:53;8.50;99.90
15259;DHT22;34462;51.368;12.364;2023-03-15T13:12:48;8.50;99.90
15259;DHT22;34462;51.368;12.364;2023-03-15T13:15:25;8.10;99.90
15259;DHT22;34462;51.368;12.364;2023-03-15T13:18:03;7.90;99.90
15259;DHT22;34462;51.368;12.364;2023-03-15T13:20:50;7.60;99.90
15259;DHT22;34462;51.368;12.364;2023-03-15T13:23:28;7.30;99.90
15259;DHT22;34462;51.368;12.364;2023-03-15T13:26:09;7.10;99.90
15259;DHT22;34462;51.368;12.364;2023-03-15T13:28:47;7.10;99.90
15259;DHT22;34462;51.368;12.364;2023-03-15T13:31:20;7.20;99.90
15259;DHT22;34462;51.368;12.364;2023-03-15T13:33:52;7.30;99.90
15259;DHT22;34462;51.368;12.364;2023-03-15T13:36:25;7.50;99.90
15259;DHT22;34462;51.368;12.364;2023-03-15T13:38:56;7.60;99.90
15259;DHT22;34462;51.368;12.364;2023-03-15T13:41:27;7.90;99.90
15259;DHT22;34462;51.368;12.364;2023-03-15T13:43:57;8.10;99.90
15259;DHT22;34462;51.368;12.364;2023-03-15T13:46:30;8.40;99.90
15259;DHT22;34462;51.368;12.364;2023-03-15T13:48:59;8.30;99.90
15259;DHT22;34462;51.368;12.364;2023-03-15T13:51:30;8.20;99.90
15259;DHT22;34462;51.368;12.364;2023-03-15T13:54:03;8.20;99.90
15259;DHT22;34462;51.368;12.364;2023-03-15T13:56:36;8.10;99.90
15259;DHT22;34462;51.368;12.364;2023-03-15T13:59:16;8.20;99.90
15259;DHT22;34462;51.368;12.364;2023-03-15T14:01:45;8.10;99.90
15259;DHT22;34462;51.368;12.364;2023-03-15T14:04:20;8.10;99.90
15259;DHT22;34462;51.368;12.364;2023-03-15T14:06:49;8.40;99.90
15259;DHT22;34462;51.368;12.364;2023-03-15T14:09:29;8.60;99.90
15259;DHT22;34462;51.368;12.364;2023-03-15T14:12:03;8.80;99.90
15259;DHT22;34462;51.368;12.364;2023-03-15T14:14:49;9.30;99.90
15259;DHT22;34462;51.368;12.364;2023-03-15T14:17:24;9.50;99.90
15259;DHT22;34462;51.368;12.364;2023-03-15T14:19:55;9.50;99.90
15259;DHT22;34462;51.368;12.364;2023-03-15T14:22:32;9.80;99.90
15259;DHT22;34462;51.368;12.364;2023-03-15T14:25:02;9.90;99.90
15259;DHT22;34462;51.368;12.364;2023-03-15T14:27:47;10.00;99.90
15259;DHT22;34462;51.368;12.364;2023-03-15T14:30:21;9.80;99.90
15259;DHT22;34462;51.368;12.364;2023-03-15T14:32:53;9.60;99.90
15259;DHT22;34462;51.368;12.364;2023-03-15T14:35:24;9.40;99.90
15259;DHT22;34462;51.368;12.364;2023-03-15T14:38:02;9.10;99.90
15259;DHT22;34462;51.368;12.364;2023-03-15T14:40:35;8.70;99.90
15259;DHT22;34462;51.368;12.364;2023-03-15T14:43:07;8.40;99.90
15259;DHT22;34462;51.368;12.364;2023-03-15T14:45:40;8.00;99.90
15259;DHT22;34462;51.368;12.364;2023-03-15T14:48:12;7.60;99.90
15259;DHT22;34462;51.368;12.364;2023-03-15T14:50:46;7.30;99.90
15259;DHT22;34462;51.368;12.364;2023-03-15T14:53:17;7.10;99.90
15259;DHT22;34462;51.368;12.364;2023-03-15T14:55:49;6.80;99.90
15259;DHT22;34462;51.368;12.364;2023-03-15T14:58:20;6.80;99.90
15259;DHT22;34462;51.368;12.364;2023-03-15T15:00:50;6.70;99.90
15259;DHT22;34462;51.368;12.364;2023-03-15T15:03:28;6.70;99.90
15259;DHT22;34462;51.368;12.364;2023-03-15T15:06:00;6.70;99.90
15259;DHT22;34462;51.368;12.364;2023-03-15T15:08:30;6.60;99.90
15259;DHT22;34462;51.368;12.364;2023-03-15T15:10:59;6.40;99.90
15259;DHT22;34462;51.368;12.364;2023-03-15T15:13:30;6.50;99.90
15259;DHT22;34462;51.368;12.364;2023-03-15T15:15:58;6.40;99.90
15259;DHT22;34462;51.368;12.364;2023-03-15T15:18:28;6.40;99.90
15259;DHT22;34462;51.368;12.364;2023-03-15T15:21:00;6.60;99.90
15259;DHT22;34462;51.368;12.364;2023-03-15T15:23:31;6.50;99.90
15259;DHT22;34462;51.368;12.364;2023-03-15T15:26:22;6.50;99.90
15259;DHT22;34462;51.368;12.364;2023-03-15T15:28:54;6.50;99.90
15259;DHT22;34462;51.368;12.364;2023-03-15T15:31:24;6.40;99.90
15259;DHT22;34462;51.368;12.364;2023-03-15T15:33:55;6.30;99.90
15259;DHT22;34462;51.368;12.364;2023-03-15T15:36:25;6.20;99.90
15259;DHT22;34462;51.368;12.364;2023-03-15T15:38:58;6.10;99.90
15259;DHT22;34462;51.368;12.364;2023-03-15T15:41:32;6.00;99.90
15259;DHT22;34462;51.368;12.364;2023-03-15T15:44:02;5.90;99.90
15259;DHT22;34462;51.368;12.364;2023-03-15T15:46:30;5.90;99.90
15259;DHT22;34462;51.368;12.364;2023-03-15T15:48:58;5.80;99.90
15259;DHT22;34462;51.368;12.364;2023-03-15T15:51:27;5.80;99.90
15259;DHT22;34462;51.368;12.364;2023-03-15T15:53:58;5.80;99.90
15259;DHT22;34462;51.368;12.364;2023-03-15T15:56:31;5.80;99.90
15259;DHT22;34462;51.368;12.364;2023-03-15T15:59:03;5.60;99.90
15259;DHT22;34462;51.368;12.364;2023-03-15T16:01:32;5.80;99.90
15259;DHT22;34462;51.368;12.364;2023-03-15T16:04:03;5.80;99.90
15259;DHT22;34462;51.368;12.364;2023-03-15T16:06:31;5.80;99.90
15259;DHT22;34462;51.368;12.364;2023-03-15T16:09:00;5.80;99.90